createdAt,value
2023-05-15T00:01:59.435Z,16.10
2023-05-15T00:04:26.631Z,16.10
2023-05-15T00:06:53.716Z,16.10
2023-05-15T00:09:20.390Z,16.00
2023-05-15T00:11:47.099Z,16.00
2023-05-15T00:14:13.797Z,16.00
2023-05-15T00:16:40.568Z,16.00
2023-05-15T00:19:07.594Z,16.00
2023-05-15T00:21:34.378Z,15.80
2023-05-15T00:24:01.160Z,15.90
2023-05-15T00:26:27.865Z,15.90
2023-05-15T00:28:54.520Z,15.90
2023-05-15T00:31:21.274Z,16.70
2023-05-15T00:33:48.044Z,15.80
2023-05-15T00:36:14.739Z,15.80
2023-05-15T00:38:41.452Z,15.80
2023-05-15T00:41:08.578Z,15.80
2023-05-15T00:43:35.302Z,15.70
2023-05-15T00:46:02.799Z,15.70
2023-05-15T00:48:29.697Z,15.70
2023-05-15T00:50:57.708Z,15.70
2023-05-15T00:53:24.791Z,15.60
2023-05-15T00:55:52.327Z,15.60
2023-05-15T00:58:21.613Z,15.60
2023-05-15T01:00:50.409Z,15.60
2023-05-15T01:03:17.553Z,15.60
2023-05-15T01:05:45.078Z,15.60
2023-05-15T01:08:37.787Z,15.50
2023-05-15T01:11:06.335Z,15.50
2023-05-15T01:13:33.042Z,15.50
2023-05-15T01:15:59.794Z,15.40
2023-05-15T01:18:32.272Z,15.40
2023-05-15T01:21:02.845Z,15.40
2023-05-15T01:23:42.063Z,15.30
2023-05-15T01:26:24.191Z,15.30
2023-05-15T01:29:02.804Z,15.30
2023-05-15T01:31:33.037Z,15.30
2023-05-15T01:34:03.679Z,15.20
2023-05-15T01:36:36.739Z,15.30
2023-05-15T01:39:04.393Z,15.20
2023-05-15T01:41:42.979Z,15.20
2023-05-15T01:44:20.105Z,15.20
2023-05-15T01:46:50.397Z,15.20
2023-05-15T01:49:19.518Z,15.20
2023-05-15T01:51:50.933Z,15.10
2023-05-15T01:54:18.702Z,15.10
2023-05-15T01:56:46.277Z,15.10
2023-05-15T01:59:14.450Z,15.10
2023-05-15T02:01:41.771Z,15.10
2023-05-15T02:04:08.912Z,15.10
2023-05-15T02:06:36.370Z,15.00
2023-05-15T02:09:03.474Z,15.00
2023-05-15T02:11:30.135Z,15.00
2023-05-15T02:13:57.946Z,15.00
2023-05-15T02:16:24.686Z,15.00
2023-05-15T02:18:52.577Z,15.00
2023-05-15T02:23:46.534Z,15.00
2023-05-15T02:26:30.939Z,15.00
2023-05-15T02:29:11.190Z,14.90
2023-05-15T02:32:05.012Z,14.90
2023-05-15T02:34:40.455Z,14.90
2023-05-15T02:37:10.908Z,14.90
2023-05-15T02:39:37.794Z,14.90
2023-05-15T02:42:05.465Z,14.80
2023-05-15T02:44:32.659Z,14.80
2023-05-15T02:46:59.803Z,14.80
2023-05-15T02:49:26.580Z,14.80
2023-05-15T02:51:53.230Z,14.80
2023-05-15T02:54:19.974Z,14.80
2023-05-15T02:56:46.634Z,14.80
2023-05-15T02:59:19.015Z,13.60
2023-05-15T03:01:49.745Z,14.70
2023-05-15T03:04:16.567Z,14.70
2023-05-15T03:06:43.240Z,14.70
2023-05-15T03:09:09.876Z,14.70
2023-05-15T03:11:36.499Z,14.60
2023-05-15T03:14:03.269Z,14.60
2023-05-15T03:16:29.957Z,14.60
2023-05-15T03:18:56.690Z,14.60
2023-05-15T03:21:23.377Z,14.60
2023-05-15T03:23:50.016Z,14.60
2023-05-15T03:26:16.745Z,14.60
2023-05-15T03:28:43.406Z,14.60
2023-05-15T03:31:10.209Z,14.60
2023-05-15T03:33:38.580Z,14.60
2023-05-15T03:36:05.725Z,14.60
2023-05-15T03:38:32.403Z,14.60
2023-05-15T03:40:59.083Z,14.60
2023-05-15T03:43:25.956Z,14.60
2023-05-15T03:45:52.593Z,14.50
2023-05-15T03:48:19.223Z,14.60
2023-05-15T03:50:47.408Z,14.60
2023-05-15T03:53:14.160Z,14.60
2023-05-15T03:55:41.216Z,14.60
2023-05-15T03:58:07.857Z,14.60
2023-05-15T04:00:34.605Z,14.60
2023-05-15T04:03:01.792Z,14.60
2023-05-15T04:05:28.830Z,14.50
2023-05-15T04:07:55.683Z,13.70
2023-05-15T04:10:22.316Z,14.50
2023-05-15T04:12:49.078Z,14.50
2023-05-15T04:15:21.674Z,14.50
2023-05-15T04:17:50.595Z,14.50
2023-05-15T04:20:19.154Z,14.50
2023-05-15T04:22:46.084Z,14.50
2023-05-15T04:25:14.779Z,14.50
2023-05-15T04:27:42.075Z,14.50
2023-05-15T04:30:09.117Z,14.50
2023-05-15T04:32:36.052Z,14.50
2023-05-15T04:35:05.506Z,14.50
2023-05-15T04:37:32.425Z,14.40
2023-05-15T04:39:59.092Z,14.40
2023-05-15T04:42:26.621Z,14.40
2023-05-15T04:44:53.933Z,14.50
2023-05-15T04:47:20.805Z,14.50
2023-05-15T04:49:48.102Z,14.40
2023-05-15T04:52:14.854Z,14.40
2023-05-15T04:54:42.087Z,14.40
2023-05-15T04:57:09.130Z,14.40
2023-05-15T04:59:35.919Z,14.40
2023-05-15T05:02:02.712Z,14.40
2023-05-15T05:04:29.554Z,14.40
2023-05-15T05:06:56.199Z,14.40
2023-05-15T05:09:23.043Z,14.40
2023-05-15T05:11:49.729Z,14.40
2023-05-15T05:14:16.616Z,14.40
2023-05-15T05:16:45.061Z,14.40
2023-05-15T05:19:13.155Z,14.40
2023-05-15T05:21:39.834Z,14.40
2023-05-15T05:24:06.551Z,14.40
2023-05-15T05:26:33.246Z,14.40
2023-05-15T05:28:59.967Z,14.40
2023-05-15T05:31:26.728Z,14.80
2023-05-15T05:33:53.376Z,14.50
2023-05-15T05:36:20.002Z,14.60
2023-05-15T05:38:46.747Z,14.60
2023-05-15T05:41:13.426Z,14.70
2023-05-15T05:43:40.078Z,14.70
2023-05-15T05:46:06.719Z,14.70
2023-05-15T05:48:33.375Z,14.80
2023-05-15T05:51:00.041Z,14.80
2023-05-15T05:53:26.740Z,14.80
2023-05-15T05:55:53.877Z,14.80
2023-05-15T05:58:25.672Z,14.00
2023-05-15T06:00:53.504Z,14.80
2023-05-15T06:03:21.165Z,14.90
2023-05-15T06:05:48.680Z,14.50
2023-05-15T06:08:15.500Z,14.90
2023-05-15T06:10:42.512Z,14.90
2023-05-15T06:13:09.195Z,15.00
2023-05-15T06:15:35.892Z,15.00
2023-05-15T06:18:02.589Z,15.10
2023-05-15T06:20:29.421Z,15.10
2023-05-15T06:22:56.132Z,15.10
2023-05-15T06:25:23.186Z,15.20
2023-05-15T06:27:50.208Z,15.20
2023-05-15T06:30:16.936Z,15.30
2023-05-15T06:32:43.776Z,15.40
2023-05-15T06:35:10.973Z,15.40
2023-05-15T06:37:37.958Z,15.50
2023-05-15T06:40:05.842Z,15.50
2023-05-15T06:42:32.916Z,15.60
2023-05-15T06:44:59.651Z,15.60
2023-05-15T06:47:26.469Z,15.70
2023-05-15T06:49:54.351Z,15.80
2023-05-15T06:52:21.109Z,15.90
2023-05-15T06:54:48.372Z,15.90
2023-05-15T06:57:15.387Z,16.00
2023-05-15T06:59:42.000Z,16.10
2023-05-15T07:02:08.815Z,16.30
2023-05-15T07:04:35.731Z,16.30
2023-05-15T07:07:02.434Z,16.40
2023-05-15T07:09:29.071Z,16.40
2023-05-15T07:11:55.724Z,16.60
2023-05-15T07:14:22.355Z,16.60
2023-05-15T07:16:49.106Z,16.70
2023-05-15T07:19:21.727Z,16.80
2023-05-15T07:21:48.390Z,16.90
2023-05-15T07:24:15.032Z,17.00
2023-05-15T07:26:54.301Z,17.10
2023-05-15T07:29:24.017Z,17.20
2023-05-15T07:31:50.825Z,16.10
2023-05-15T07:34:17.598Z,17.40
2023-05-15T07:36:44.370Z,17.50
2023-05-15T07:39:11.114Z,17.50
2023-05-15T07:41:37.840Z,17.70
2023-05-15T07:44:04.569Z,17.70
2023-05-15T07:46:31.303Z,17.80
2023-05-15T07:48:57.982Z,17.90
2023-05-15T07:51:24.933Z,18.10
2023-05-15T07:53:51.640Z,18.10
2023-05-15T07:56:18.263Z,18.20
2023-05-15T07:58:45.121Z,18.30
2023-05-15T08:01:12.158Z,18.40
2023-05-15T08:03:38.919Z,18.40
2023-05-15T08:06:07.452Z,18.50
2023-05-15T08:08:34.368Z,18.60
2023-05-15T08:11:01.130Z,18.70
2023-05-15T08:13:28.696Z,18.80
2023-05-15T08:15:55.655Z,18.90
2023-05-15T08:18:22.417Z,19.00
2023-05-15T08:20:49.695Z,19.10
2023-05-15T08:23:16.310Z,19.20
2023-05-15T08:25:42.966Z,19.30
2023-05-15T08:28:11.071Z,19.30
2023-05-15T08:30:37.917Z,19.40
2023-05-15T08:33:04.753Z,19.80
2023-05-15T08:35:31.646Z,19.60
2023-05-15T08:37:58.797Z,19.70
2023-05-15T08:43:03.725Z,19.90
2023-05-15T08:45:30.775Z,19.90
2023-05-15T08:47:59.025Z,20.00
2023-05-15T08:50:27.486Z,20.10
2023-05-15T08:52:58.329Z,20.20
2023-05-15T08:55:25.543Z,20.30
2023-05-15T08:57:53.848Z,20.30
2023-05-15T09:01:07.883Z,20.40
2023-05-15T09:03:34.816Z,20.60
2023-05-15T09:06:01.998Z,20.60
2023-05-15T09:08:30.783Z,20.70
2023-05-15T09:10:58.834Z,20.80
2023-05-15T09:13:25.586Z,20.90
2023-05-15T09:15:52.626Z,20.90
2023-05-15T09:18:19.454Z,21.00
2023-05-15T09:20:46.193Z,21.10
2023-05-15T09:23:24.606Z,21.20
2023-05-15T09:25:56.993Z,21.30
2023-05-15T09:28:32.155Z,21.30
2023-05-15T09:31:03.503Z,21.40
2023-05-15T09:33:38.539Z,21.50
2023-05-15T09:36:06.956Z,21.60
2023-05-15T09:38:34.364Z,21.60
2023-05-15T09:41:06.216Z,21.70
2023-05-15T09:43:41.305Z,21.70
2023-05-15T09:46:09.542Z,21.80
2023-05-15T09:48:37.215Z,21.80
2023-05-15T09:51:07.484Z,21.90
2023-05-15T09:53:36.743Z,21.90
2023-05-15T09:56:03.726Z,22.00
2023-05-15T09:58:30.511Z,22.00
2023-05-15T10:01:00.940Z,22.10
2023-05-15T10:03:27.717Z,22.10
2023-05-15T10:06:05.487Z,22.20
2023-05-15T10:08:32.322Z,22.20
2023-05-15T10:11:01.430Z,22.30
2023-05-15T10:13:28.671Z,22.30
2023-05-15T10:15:56.376Z,22.40
2023-05-15T10:18:26.171Z,22.40
2023-05-15T10:20:52.916Z,22.60
2023-05-15T10:23:21.700Z,22.60
2023-05-15T10:26:16.411Z,22.70
2023-05-15T10:28:44.999Z,22.70
2023-05-15T10:31:12.292Z,22.80
2023-05-15T10:33:39.364Z,22.80
2023-05-15T10:36:07.403Z,22.80
2023-05-15T10:38:34.511Z,22.90
2023-05-15T10:41:15.638Z,23.00
2023-05-15T10:43:44.235Z,23.00
2023-05-15T10:46:11.323Z,23.10
2023-05-15T10:48:39.040Z,23.10
2023-05-15T10:51:05.883Z,23.10
2023-05-15T10:53:34.139Z,23.20
2023-05-15T10:56:01.243Z,23.30
2023-05-15T10:58:29.063Z,23.30
2023-05-15T11:00:57.589Z,23.40
2023-05-15T11:03:47.974Z,23.40
2023-05-15T11:06:15.753Z,23.50
2023-05-15T11:08:45.344Z,23.50
2023-05-15T11:11:54.725Z,23.70
2023-05-15T11:14:25.425Z,23.60
2023-05-15T11:16:56.449Z,23.70
2023-05-15T11:19:31.360Z,23.70
2023-05-15T11:22:08.105Z,23.80
2023-05-15T11:24:55.712Z,23.80
2023-05-15T11:27:33.266Z,23.80
2023-05-15T11:30:13.408Z,23.90
2023-05-15T11:32:47.247Z,23.90
2023-05-15T11:35:27.192Z,23.90
2023-05-15T11:38:10.429Z,24.00
2023-05-15T11:40:47.772Z,24.00
2023-05-15T11:43:28.464Z,24.10
2023-05-15T11:45:58.261Z,24.10
2023-05-15T11:48:35.200Z,24.20
2023-05-15T11:51:02.295Z,24.10
2023-05-15T11:53:30.250Z,24.20
2023-05-15T11:55:57.135Z,24.20
2023-05-15T11:58:25.000Z,24.30
2023-05-15T12:00:53.548Z,24.30
2023-05-15T12:03:38.446Z,24.30
2023-05-15T12:06:05.536Z,24.40
2023-05-15T12:08:39.822Z,24.40
2023-05-15T12:11:06.584Z,24.50
2023-05-15T12:13:33.957Z,24.60
2023-05-15T12:16:03.475Z,24.60
2023-05-15T12:18:32.354Z,24.70
2023-05-15T12:20:59.436Z,24.70
2023-05-15T12:23:27.317Z,24.80
2023-05-15T12:26:00.319Z,24.80
2023-05-15T12:28:27.385Z,24.90
2023-05-15T12:30:54.597Z,24.90
2023-05-15T12:33:21.732Z,25.10
2023-05-15T12:35:54.963Z,25.10
2023-05-15T12:38:24.805Z,25.10
2023-05-15T12:40:53.670Z,25.10
2023-05-15T12:43:21.051Z,25.20
2023-05-15T12:45:52.700Z,25.20
2023-05-15T12:48:19.727Z,25.30
2023-05-15T12:50:46.920Z,25.30
2023-05-15T12:53:16.355Z,25.40
2023-05-15T12:55:46.042Z,25.40
2023-05-15T12:58:13.905Z,25.40
2023-05-15T13:00:46.160Z,25.50
2023-05-15T13:03:14.063Z,25.50
2023-05-15T13:05:43.749Z,25.50
2023-05-15T13:08:15.505Z,25.50
2023-05-15T13:10:42.172Z,25.50
2023-05-15T13:13:08.812Z,25.60
2023-05-15T13:15:38.165Z,25.60
2023-05-15T13:18:16.189Z,25.50
2023-05-15T13:20:45.069Z,25.60
2023-05-15T13:23:15.982Z,25.60
2023-05-15T13:25:43.056Z,25.60
2023-05-15T13:28:10.985Z,25.60
2023-05-15T13:30:41.450Z,25.60
2023-05-15T13:33:09.290Z,25.50
2023-05-15T13:35:36.700Z,25.50
2023-05-15T13:38:04.365Z,25.50
2023-05-15T13:40:33.467Z,25.50
2023-05-15T13:43:00.400Z,25.40
2023-05-15T13:45:30.709Z,25.40
2023-05-15T13:48:00.696Z,25.40
2023-05-15T13:50:27.862Z,25.40
2023-05-15T13:52:54.749Z,25.40
2023-05-15T13:55:22.980Z,25.40
2023-05-15T13:57:50.010Z,25.40
2023-05-15T14:00:17.362Z,25.30
2023-05-15T14:02:44.658Z,25.30
2023-05-15T14:05:12.845Z,25.20
2023-05-15T14:07:39.933Z,25.20
2023-05-15T14:10:07.275Z,25.20
2023-05-15T14:12:34.082Z,25.10
2023-05-15T14:15:01.048Z,25.10
2023-05-15T14:17:28.042Z,25.10
2023-05-15T14:19:54.829Z,25.10
2023-05-15T14:22:24.753Z,25.00
2023-05-15T14:24:52.708Z,25.00
2023-05-15T14:27:19.920Z,24.90
2023-05-15T14:29:48.240Z,25.00
2023-05-15T14:32:15.898Z,24.90
2023-05-15T14:34:42.677Z,24.90
2023-05-15T14:37:09.488Z,24.90
2023-05-15T14:39:36.146Z,24.80
2023-05-15T14:42:02.840Z,24.80
2023-05-15T14:44:29.551Z,24.80
2023-05-15T14:47:07.004Z,24.80
2023-05-15T14:49:34.072Z,24.80
2023-05-15T14:52:00.826Z,24.80
2023-05-15T14:54:27.499Z,24.80
2023-05-15T14:56:55.714Z,24.80
2023-05-15T14:59:25.003Z,24.80
2023-05-15T15:01:51.751Z,24.80
2023-05-15T15:04:18.491Z,24.80
2023-05-15T15:06:46.697Z,24.70
2023-05-15T15:09:13.343Z,24.70
2023-05-15T15:11:39.971Z,24.70
2023-05-15T15:14:06.626Z,24.70
2023-05-15T15:16:33.684Z,24.70
2023-05-15T15:19:00.498Z,24.60
2023-05-15T15:21:27.365Z,24.50
2023-05-15T15:23:55.148Z,24.50
2023-05-15T15:26:21.835Z,24.50
2023-05-15T15:28:48.543Z,24.40
2023-05-15T15:31:15.767Z,24.40
2023-05-15T15:33:42.526Z,24.40
2023-05-15T15:36:09.177Z,24.30
2023-05-15T15:38:36.032Z,24.30
2023-05-15T15:41:03.628Z,24.20
2023-05-15T15:43:30.258Z,24.20
2023-05-15T15:45:56.943Z,24.10
2023-05-15T15:48:23.700Z,24.00
2023-05-15T15:50:52.134Z,24.00
2023-05-15T15:53:18.765Z,23.90
2023-05-15T15:55:47.095Z,23.80
2023-05-15T15:58:14.628Z,23.80
2023-05-15T16:00:41.332Z,23.70
2023-05-15T16:03:08.374Z,23.60
2023-05-15T16:05:35.144Z,23.50
2023-05-15T16:08:01.807Z,23.50
2023-05-15T16:10:28.772Z,23.40
2023-05-15T16:12:55.901Z,23.30
2023-05-15T16:15:24.007Z,23.20
2023-05-15T16:17:55.008Z,23.20
2023-05-15T16:20:22.235Z,23.10
2023-05-15T16:22:48.996Z,23.00
2023-05-15T16:25:15.609Z,23.00
2023-05-15T16:27:42.283Z,22.90
2023-05-15T16:30:10.777Z,22.90
2023-05-15T16:32:37.535Z,22.80
2023-05-15T16:35:04.623Z,22.70
2023-05-15T16:37:31.404Z,22.70
2023-05-15T16:39:58.080Z,22.60
2023-05-15T16:42:24.892Z,22.40
2023-05-15T16:44:51.555Z,22.50
2023-05-15T16:47:18.256Z,22.50
2023-05-15T16:49:46.943Z,22.50
2023-05-15T16:52:15.728Z,22.30
2023-05-15T16:54:42.513Z,22.30
2023-05-15T16:57:09.179Z,22.30
2023-05-15T16:59:35.852Z,22.20
2023-05-15T17:02:02.520Z,22.10
2023-05-15T17:04:33.123Z,22.10
2023-05-15T17:06:59.960Z,22.10
2023-05-15T17:09:26.798Z,22.10
2023-05-15T17:11:53.452Z,21.60
2023-05-15T17:14:20.147Z,21.90
2023-05-15T17:16:47.074Z,21.90
2023-05-15T17:19:14.184Z,21.90
2023-05-15T17:21:40.942Z,21.80
2023-05-15T17:24:07.705Z,21.80
2023-05-15T17:26:34.411Z,22.70
2023-05-15T17:29:01.240Z,21.70
2023-05-15T17:31:29.412Z,21.60
2023-05-15T17:33:56.495Z,21.60
2023-05-15T17:36:23.182Z,21.60
2023-05-15T17:38:49.865Z,21.50
2023-05-15T17:41:16.924Z,21.50
2023-05-15T17:43:43.610Z,21.50
2023-05-15T17:46:10.342Z,21.40
2023-05-15T17:48:37.065Z,21.40
2023-05-15T17:51:03.748Z,21.40
2023-05-15T17:53:30.506Z,21.30
2023-05-15T17:55:57.500Z,21.30
2023-05-15T17:58:24.150Z,21.30
2023-05-15T18:00:53.612Z,21.20
2023-05-15T18:03:20.419Z,21.20
2023-05-15T18:05:47.475Z,21.20
2023-05-15T18:08:14.598Z,21.10
2023-05-15T18:10:41.284Z,21.10
2023-05-15T18:13:07.946Z,21.00
2023-05-15T18:15:37.348Z,21.00
2023-05-15T18:18:04.534Z,20.90
2023-05-15T18:20:31.210Z,21.00
2023-05-15T18:22:57.858Z,20.80
2023-05-15T18:25:24.920Z,20.90
2023-05-15T18:27:52.038Z,20.80
2023-05-15T18:30:18.940Z,20.80
2023-05-15T18:32:46.064Z,21.50
2023-05-15T18:35:12.843Z,20.70
2023-05-15T18:37:39.512Z,20.60
2023-05-15T18:40:08.392Z,20.60
2023-05-15T18:42:35.624Z,20.50
2023-05-15T18:45:04.441Z,20.50
2023-05-15T18:47:31.249Z,20.50
2023-05-15T18:49:58.030Z,20.40
2023-05-15T18:52:26.453Z,20.30
2023-05-15T18:54:54.185Z,20.40
2023-05-15T18:57:21.108Z,20.30
2023-05-15T18:59:48.117Z,20.30
2023-05-15T19:02:15.013Z,20.40
2023-05-15T19:04:41.689Z,20.20
2023-05-15T19:07:08.384Z,20.20
2023-05-15T19:09:35.439Z,20.10
2023-05-15T19:12:02.860Z,20.10
2023-05-15T19:14:29.579Z,20.10
2023-05-15T19:16:56.388Z,20.00
2023-05-15T19:19:23.527Z,20.00
2023-05-15T19:21:51.977Z,19.90
2023-05-15T19:24:19.753Z,19.90
2023-05-15T19:26:46.473Z,20.00
2023-05-15T19:29:13.147Z,19.80
2023-05-15T19:31:40.044Z,19.80
2023-05-15T19:34:07.245Z,19.80
2023-05-15T19:36:34.125Z,18.50
2023-05-15T19:39:00.788Z,19.70
2023-05-15T19:41:27.530Z,19.70
2023-05-15T19:43:54.190Z,19.60
2023-05-15T19:46:21.009Z,19.60
2023-05-15T19:48:47.696Z,19.60
2023-05-15T19:51:14.646Z,19.60
2023-05-15T19:53:41.530Z,19.50
2023-05-15T19:56:08.356Z,19.70
2023-05-15T19:58:35.051Z,19.50
2023-05-15T20:01:01.746Z,19.40
2023-05-15T20:03:33.187Z,19.40
2023-05-15T20:06:01.220Z,19.40
2023-05-15T20:08:28.117Z,19.40
2023-05-15T20:10:54.932Z,19.30
2023-05-15T20:13:22.380Z,19.30
2023-05-15T20:15:56.947Z,19.30
2023-05-15T20:18:28.080Z,19.30
2023-05-15T20:20:54.768Z,19.20
2023-05-15T20:23:21.819Z,19.20
2023-05-15T20:25:49.835Z,19.20
2023-05-15T20:28:17.783Z,19.10
2023-05-15T20:30:47.391Z,19.10
2023-05-15T20:33:14.356Z,19.10
2023-05-15T20:35:42.731Z,19.00
2023-05-15T20:38:10.488Z,19.00
2023-05-15T20:40:37.736Z,19.00
2023-05-15T20:43:05.782Z,18.90
2023-05-15T20:45:32.607Z,18.90
2023-05-15T20:47:59.426Z,18.90
2023-05-15T20:50:26.364Z,18.80
2023-05-15T20:52:53.341Z,18.80
2023-05-15T20:55:21.548Z,18.80
2023-05-15T20:57:49.185Z,18.70
2023-05-15T21:00:16.905Z,18.70
2023-05-15T21:02:47.991Z,18.60
2023-05-15T21:05:14.965Z,18.60
2023-05-15T21:07:41.646Z,18.60
2023-05-15T21:10:09.096Z,18.60
2023-05-15T21:12:35.922Z,18.50
2023-05-15T21:15:02.919Z,18.50
2023-05-15T21:17:29.733Z,18.50
2023-05-15T21:19:58.512Z,18.40
2023-05-15T21:22:25.347Z,18.40
2023-05-15T21:24:52.043Z,18.40
2023-05-15T21:27:18.820Z,18.40
2023-05-15T21:29:45.880Z,18.30
2023-05-15T21:32:12.773Z,18.30
2023-05-15T21:34:39.547Z,18.30
2023-05-15T21:37:06.381Z,18.20
2023-05-15T21:39:33.027Z,18.20
2023-05-15T21:41:59.675Z,20.70
2023-05-15T21:44:26.391Z,18.10
2023-05-15T21:46:53.381Z,18.10
2023-05-15T21:49:20.227Z,18.10
2023-05-15T21:51:46.896Z,18.00
2023-05-15T21:54:13.648Z,18.00
2023-05-15T21:56:41.182Z,18.00
2023-05-15T21:59:08.080Z,18.00
2023-05-15T22:01:36.140Z,18.00
2023-05-15T22:04:03.125Z,17.90
2023-05-15T22:06:29.916Z,17.90
2023-05-15T22:08:57.533Z,17.80
2023-05-15T22:11:24.327Z,17.80
2023-05-15T22:13:51.096Z,17.80
2023-05-15T22:16:19.123Z,17.70
2023-05-15T22:18:48.997Z,17.70
2023-05-15T22:21:19.214Z,17.70
2023-05-15T22:23:46.194Z,17.70
2023-05-15T22:26:12.972Z,17.60
2023-05-15T22:28:39.605Z,17.60
2023-05-15T22:31:06.339Z,17.60
2023-05-15T22:33:33.155Z,17.60
2023-05-15T22:35:59.794Z,17.50
2023-05-15T22:38:26.657Z,17.50
2023-05-15T22:40:53.829Z,17.50
2023-05-15T22:43:22.717Z,17.40
2023-05-15T22:45:49.585Z,17.40
2023-05-15T22:48:17.081Z,17.40
2023-05-15T22:50:44.674Z,17.40
2023-05-15T22:53:11.556Z,17.30
2023-05-15T22:55:38.224Z,17.30
2023-05-15T22:58:05.247Z,17.30
2023-05-15T23:00:32.717Z,17.20
2023-05-15T23:02:59.484Z,17.20
2023-05-15T23:05:27.500Z,17.20
2023-05-15T23:07:54.151Z,17.20
2023-05-15T23:10:21.016Z,17.20
2023-05-15T23:12:48.042Z,17.10
2023-05-15T23:15:14.710Z,17.10
2023-05-15T23:17:41.585Z,17.10
2023-05-15T23:20:12.690Z,17.00
2023-05-15T23:22:39.501Z,17.00
2023-05-15T23:25:07.421Z,17.00
2023-05-15T23:27:34.227Z,17.00
2023-05-15T23:30:01.128Z,17.00
2023-05-15T23:32:27.828Z,16.90
2023-05-15T23:34:54.557Z,16.90
2023-05-15T23:37:21.315Z,16.90
2023-05-15T23:39:48.036Z,16.80
2023-05-15T23:42:15.183Z,16.90
2023-05-15T23:44:41.850Z,17.10
2023-05-15T23:47:08.623Z,16.80
2023-05-15T23:49:35.767Z,16.80
2023-05-15T23:52:02.466Z,16.70
2023-05-15T23:54:29.517Z,16.70
2023-05-15T23:56:56.178Z,16.60
2023-05-15T23:59:22.832Z,16.70
